Time;durP1;ratioP1;P1;durP2;ratioP2;P2;SDS_P1;SDS_P2;PMS_P1;PMS_P2;Temp;Humidity;BMP_temperature;BMP_pressure;BME280_temperature;BME280_humidity;BME280_pressure;Samples;Min_cycle;Max_cycle;Signal;HPM_P1;HPM_P2
2021/12/08 00:00:30;;;;;;;6.50;1.70;;;2.20;99.90;;;;;;5056138;28;20024;-70
2021/12/08 00:03:00;;;;;;;6.03;2.13;;;2.30;99.90;;;;;;5055089;28;20021;-71
2021/12/08 00:05:28;;;;;;;3.95;2.03;;;2.30;99.90;;;;;;5055839;28;20025;-70
2021/12/08 00:07:56;;;;;;;4.28;1.40;;;2.30;99.90;;;;;;5056120;28;20028;-70
2021/12/08 00:13:07;;;;;;;5.60;1.50;;;2.30;99.90;;;;;;5060123;28;20025;-71
2021/12/08 00:15:39;;;;;;;9.63;2.28;;;2.30;99.90;;;;;;5061190;28;20013;-71
2021/12/08 00:18:10;;;;;;;9.50;2.65;;;2.30;99.90;;;;;;5061498;28;20051;-71
2021/12/08 00:20:39;;;;;;;2.75;1.23;;;2.40;99.90;;;;;;5060898;28;20045;-71
2021/12/08 00:23:08;;;;;;;9.82;1.83;;;2.40;99.90;;;;;;5061294;28;20067;-71
2021/12/08 00:25:37;;;;;;;7.72;1.80;;;2.30;99.90;;;;;;5060631;28;20349;-71
2021/12/08 00:28:08;;;;;;;8.18;2.03;;;2.40;99.90;;;;;;5060769;28;20045;-71
2021/12/08 00:30:40;;;;;;;3.33;1.65;;;2.40;99.90;;;;;;5061289;28;20059;-71
2021/12/08 00:33:08;;;;;;;7.32;2.08;;;2.40;99.90;;;;;;5059858;28;20043;-70
2021/12/08 00:35:37;;;;;;;2.08;0.88;;;2.40;99.90;;;;;;5058591;28;20029;-71
2021/12/08 00:38:05;;;;;;;4.78;1.95;;;2.40;99.90;;;;;;5059606;28;20017;-70
2021/12/08 00:40:33;;;;;;;5.93;1.77;;;2.40;99.90;;;;;;5059827;28;20071;-71
2021/12/08 00:43:01;;;;;;;2.00;1.10;;;2.40;99.90;;;;;;5060077;28;20024;-71
2021/12/08 00:45:29;;;;;;;5.45;1.42;;;2.40;99.90;;;;;;5059566;28;20433;-70
2021/12/08 00:47:57;;;;;;;4.22;1.60;;;2.40;99.90;;;;;;5059489;28;20384;-71
2021/12/08 00:50:28;;;;;;;6.20;2.00;;;2.50;99.90;;;;;;5060157;28;20013;-70
2021/12/08 00:52:57;;;;;;;9.88;1.77;;;2.50;99.90;;;;;;5059748;28;20017;-70
2021/12/08 00:55:26;;;;;;;4.20;1.42;;;2.50;99.90;;;;;;5060835;28;20025;-71
2021/12/08 00:57:54;;;;;;;10.95;1.77;;;2.50;99.90;;;;;;5060790;28;20024;-71
2021/12/08 01:00:26;;;;;;;5.30;1.60;;;2.50;99.90;;;;;;5060287;28;20023;-70
2021/12/08 01:02:53;;;;;;;6.43;2.40;;;2.50;99.90;;;;;;5060164;28;20021;-70
2021/12/08 01:05:25;;;;;;;5.60;1.60;;;2.50;99.90;;;;;;5060101;28;20408;-70
2021/12/08 01:07:53;;;;;;;3.20;1.23;;;2.60;99.90;;;;;;5059964;28;20028;-71
2021/12/08 01:10:26;;;;;;;6.13;1.38;;;2.60;99.90;;;;;;5058840;28;20021;-70
2021/12/08 01:12:55;;;;;;;6.85;2.22;;;2.60;99.90;;;;;;5059292;28;20286;-70
2021/12/08 01:15:26;;;;;;;3.63;1.30;;;2.70;99.90;;;;;;5059494;28;20071;-71
2021/12/08 01:17:54;;;;;;;6.53;1.40;;;2.70;99.90;;;;;;5058902;28;20024;-70
2021/12/08 01:20:23;;;;;;;5.18;1.17;;;2.70;99.90;;;;;;5057521;28;20025;-71
2021/12/08 01:22:50;;;;;;;6.75;1.48;;;2.80;99.90;;;;;;5056924;28;20329;-71
2021/12/08 01:25:17;;;;;;;7.68;1.73;;;2.70;99.90;;;;;;5058576;28;20045;-71
2021/12/08 01:27:45;;;;;;;3.10;1.20;;;2.80;99.90;;;;;;5058674;28;20017;-71
2021/12/08 01:30:12;;;;;;;5.13;1.15;;;2.80;99.90;;;;;;5041348;28;20017;-71
2021/12/08 01:32:40;;;;;;;7.75;1.50;;;2.80;99.90;;;;;;5059554;28;20478;-71
2021/12/08 01:35:10;;;;;;;5.18;1.40;;;2.80;99.90;;;;;;5058579;28;20040;-71
2021/12/08 01:37:38;;;;;;;2.58;1.17;;;2.80;99.90;;;;;;5059759;28;20370;-71
2021/12/08 01:40:10;;;;;;;6.97;1.30;;;2.80;99.90;;;;;;5059403;28;20159;-70
2021/12/08 01:42:47;;;;;;;2.58;1.00;;;2.80;99.90;;;;;;5058655;28;20071;-70
2021/12/08 01:48:13;;;;;;;;;;;2.80;99.90;;;;;;5059383;28;20150;-70
2021/12/08 01:50:43;;;;;;;6.45;1.35;;;2.90;99.90;;;;;;5058604;28;20217;-70
2021/12/08 01:53:11;;;;;;;4.63;1.70;;;2.80;99.90;;;;;;5058361;28;20028;-70
2021/12/08 01:55:40;;;;;;;9.80;1.00;;;2.80;99.90;;;;;;5058785;28;20025;-71
2021/12/08 01:58:09;;;;;;;2.00;0.77;;;2.70;99.90;;;;;;5058471;28;20316;-70
2021/12/08 02:00:45;;;;;;;6.40;0.98;;;2.70;99.90;;;;;;5058303;28;20096;-71
2021/12/08 02:03:13;;;;;;;2.35;1.05;;;2.60;99.90;;;;;;5058781;28;20021;-71
2021/12/08 02:05:41;;;;;;;4.78;1.23;;;2.60;99.90;;;;;;5058582;28;20021;-71
2021/12/08 02:08:08;;;;;;;3.08;1.38;;;2.60;99.90;;;;;;5058190;28;20402;-71
2021/12/08 02:10:38;;;;;;;6.22;1.33;;;2.60;99.90;;;;;;5057764;28;20025;-71
2021/12/08 02:13:06;;;;;;;3.72;1.45;;;2.60;99.90;;;;;;5058796;28;20108;-71
2021/12/08 02:15:36;;;;;;;2.67;1.10;;;2.60;99.90;;;;;;5057693;28;20031;-70
2021/12/08 02:18:05;;;;;;;4.25;1.13;;;2.60;99.90;;;;;;5058694;28;20028;-71
2021/12/08 02:20:32;;;;;;;3.35;0.70;;;2.60;99.90;;;;;;5059152;28;20024;-71
2021/12/08 02:23:00;;;;;;;2.38;0.90;;;2.60;99.90;;;;;;5059022;28;20056;-71
2021/12/08 02:25:28;;;;;;;1.60;0.90;;;2.60;99.90;;;;;;5058531;28;20045;-70
2021/12/08 02:28:00;;;;;;;4.45;1.10;;;2.60;99.90;;;;;;5057931;28;20413;-70
2021/12/08 02:30:49;;;;;;;7.22;1.48;;;2.60;99.90;;;;;;5057776;28;20104;-70
2021/12/08 02:47:18;;;;;;;3.80;1.15;;;2.50;99.90;;;;;;5057999;28;20056;-71
2021/12/08 02:49:46;;;;;;;6.57;1.77;;;2.50;99.90;;;;;;5058424;28;20025;-71
2021/12/08 02:52:16;;;;;;;3.83;0.85;;;2.40;99.90;;;;;;5058259;28;20044;-71
2021/12/08 02:54:47;;;;;;;2.10;0.85;;;2.40;99.90;;;;;;5058556;28;20090;-71
2021/12/08 02:57:17;;;;;;;6.72;1.30;;;2.30;99.90;;;;;;5057943;28;20052;-70
2021/12/08 02:59:46;;;;;;;6.25;1.48;;;2.30;99.90;;;;;;5058090;28;20017;-71
2021/12/08 03:02:14;;;;;;;3.90;1.60;;;2.20;99.90;;;;;;5057800;28;20441;-70
2021/12/08 03:04:41;;;;;;;5.30;1.13;;;2.20;99.90;;;;;;5057004;28;20028;-70
2021/12/08 03:07:09;;;;;;;4.45;0.90;;;2.10;99.90;;;;;;5056730;28;20377;-71
2021/12/08 03:09:36;;;;;;;5.30;1.25;;;2.10;99.90;;;;;;5057000;28;20417;-71
2021/12/08 03:12:04;;;;;;;2.42;1.10;;;2.00;99.90;;;;;;5057345;28;20422;-71
2021/12/08 03:14:32;;;;;;;5.32;1.40;;;2.00;99.90;;;;;;5056833;28;20025;-71
2021/12/08 03:17:08;;;;;;;3.92;1.17;;;2.00;99.90;;;;;;5055634;28;20337;-71
2021/12/08 03:19:35;;;;;;;;;;;2.00;99.90;;;;;;5057175;28;20044;-71
2021/12/08 03:22:09;;;;;;;2.90;1.45;;;2.00;99.90;;;;;;5056986;28;19909;-71
2021/12/08 03:24:41;;;;;;;2.72;1.08;;;2.00;99.90;;;;;;5056525;28;20033;-71
2021/12/08 03:27:13;;;;;;;4.30;1.30;;;2.00;99.90;;;;;;5057979;28;20017;-71
2021/12/08 03:29:55;;;;;;;4.35;1.33;;;2.00;99.90;;;;;;5058049;28;20413;-70
2021/12/08 03:32:35;;;;;;;5.07;1.60;;;2.00;99.90;;;;;;5056315;28;20032;-71
2021/12/08 03:35:05;;;;;;;5.82;1.20;;;2.00;99.90;;;;;;5057427;28;20421;-71
2021/12/08 03:37:37;;;;;;;4.68;1.40;;;2.00;99.90;;;;;;5056259;28;20029;-71
2021/12/08 03:40:11;;;;;;;6.05;1.38;;;2.10;99.90;;;;;;5056446;28;20021;-71
2021/12/08 03:42:40;;;;;;;4.10;1.00;;;2.10;99.90;;;;;;5057282;28;20027;-70
2021/12/08 03:45:13;;;;;;;5.10;1.55;;;2.10;99.90;;;;;;5054806;28;20360;-71
2021/12/08 03:47:43;;;;;;;3.08;1.33;;;2.00;99.90;;;;;;5056654;28;20017;-70
2021/12/08 03:50:14;;;;;;;3.17;1.23;;;2.00;99.90;;;;;;5056505;28;20036;-71
2021/12/08 03:52:42;;;;;;;4.05;1.30;;;2.00;99.90;;;;;;5056246;28;20021;-70
2021/12/08 03:55:12;;;;;;;2.60;1.27;;;2.00;99.90;;;;;;5056239;28;20411;-70
2021/12/08 03:57:39;;;;;;;6.82;1.13;;;1.90;99.90;;;;;;5056968;28;20021;-70
2021/12/08 04:00:16;;;;;;;4.57;1.42;;;1.90;99.90;;;;;;5056933;28;20025;-71
2021/12/08 04:02:44;;;;;;;3.28;1.15;;;1.80;99.90;;;;;;5056746;28;20028;-71
2021/12/08 04:05:12;;;;;;;3.13;1.40;;;1.80;99.90;;;;;;5057036;28;20052;-71
2021/12/08 04:07:45;;;;;;;4.40;2.45;;;1.80;99.90;;;;;;5057044;28;20020;-71
2021/12/08 04:10:20;;;;;;;7.20;1.42;;;1.80;99.90;;;;;;5057464;28;20044;-71
2021/12/08 04:12:54;;;;;;;4.78;1.17;;;1.80;99.90;;;;;;5057057;28;20029;-71
2021/12/08 04:15:25;;;;;;;2.65;0.82;;;1.80;99.90;;;;;;5057563;28;20029;-71
2021/12/08 04:17:55;;;;;;;8.43;1.63;;;1.90;99.90;;;;;;5057280;28;20368;-71
2021/12/08 04:20:33;;;;;;;2.47;1.13;;;1.90;99.90;;;;;;5057439;28;20025;-71
2021/12/08 04:23:02;;;;;;;2.38;0.90;;;1.90;99.90;;;;;;5056734;28;20017;-71
2021/12/08 04:25:34;;;;;;;5.88;1.48;;;1.90;99.90;;;;;;5055773;28;20048;-71
2021/12/08 04:28:08;;;;;;;2.05;1.20;;;1.90;99.90;;;;;;5056512;28;20309;-71
2021/12/08 04:30:56;;;;;;;2.00;1.10;;;1.90;99.90;;;;;;5056465;28;20298;-71
2021/12/08 04:33:24;;;;;;;3.03;1.05;;;2.00;99.90;;;;;;5055972;28;20374;-71
2021/12/08 04:35:53;;;;;;;2.88;1.10;;;2.00;99.90;;;;;;5055900;28;20017;-70
2021/12/08 04:38:33;;;;;;;3.80;1.88;;;2.00;99.90;;;;;;5054903;28;20040;-71
2021/12/08 04:41:11;;;;;;;4.63;2.30;;;2.00;99.90;;;;;;5056083;28;20040;-70
2021/12/08 04:43:57;;;;;;;3.67;1.75;;;2.10;99.90;;;;;;5056878;28;20028;-71
2021/12/08 04:51:55;;;;;;;2.90;1.60;;;2.20;99.90;;;;;;5056689;28;20428;-71
2021/12/08 05:00:45;;;;;;;3.72;1.83;;;2.40;99.90;;;;;;5060397;28;20056;-71
2021/12/08 05:06:25;;;;;;;1.80;0.90;;;2.50;99.90;;;;;;5059167;28;20087;-71
2021/12/08 05:08:56;;;;;;;4.50;1.33;;;2.50;99.90;;;;;;5058912;28;20029;-71
2021/12/08 05:11:33;;;;;;;2.42;1.25;;;2.50;99.90;;;;;;5059053;28;20417;-71
2021/12/08 05:14:15;;;;;;;3.22;1.10;;;2.50;99.90;;;;;;5058919;28;20029;-71
2021/12/08 05:16:46;;;;;;;2.38;1.15;;;2.50;99.90;;;;;;5058939;28;20029;-71
2021/12/08 05:19:17;;;;;;;1.77;0.73;;;2.60;99.90;;;;;;5058895;28;20025;-71
2021/12/08 05:21:57;;;;;;;4.07;1.10;;;2.60;99.90;;;;;;5059708;28;20024;-71
2021/12/08 05:24:32;;;;;;;2.75;1.38;;;2.60;99.90;;;;;;5058641;28;20064;-71
2021/12/08 05:27:12;;;;;;;3.05;1.23;;;2.60;99.90;;;;;;5060033;28;20047;-71
2021/12/08 05:29:49;;;;;;;3.08;1.20;;;2.60;99.90;;;;;;5058607;28;20025;-71
2021/12/08 05:32:18;;;;;;;2.63;1.30;;;2.60;99.90;;;;;;5060170;28;20103;-71
2021/12/08 05:34:46;;;;;;;3.42;1.60;;;2.60;99.90;;;;;;5059747;28;20070;-71
2021/12/08 05:37:17;;;;;;;3.72;1.50;;;2.60;99.90;;;;;;5059825;28;20017;-71
2021/12/08 05:39:46;;;;;;;3.92;1.35;;;2.60;99.90;;;;;;5058601;28;20029;-71
2021/12/08 05:42:20;;;;;;;3.42;1.27;;;2.70;99.90;;;;;;5058347;28;20028;-71
2021/12/08 05:44:48;;;;;;;4.55;1.42;;;2.70;99.90;;;;;;5058589;28;20025;-71
2021/12/08 05:47:24;;;;;;;3.75;1.40;;;2.70;99.90;;;;;;5058913;28;20025;-71
2021/12/08 05:49:52;;;;;;;4.85;2.25;;;2.60;99.90;;;;;;5057275;28;20055;-71
2021/12/08 05:52:19;;;;;;;3.42;1.33;;;2.70;99.90;;;;;;5058713;28;20112;-71
2021/12/08 05:54:49;;;;;;;2.60;1.05;;;2.70;99.90;;;;;;5058926;28;20107;-71
2021/12/08 05:57:38;;;;;;;11.30;3.75;;;2.70;99.90;;;;;;5058165;28;20040;-71
2021/12/08 06:00:23;;;;;;;1.85;0.90;;;2.70;99.90;;;;;;5059330;28;20029;-71
2021/12/08 06:02:52;;;;;;;3.97;1.83;;;2.70;99.90;;;;;;5059454;28;20044;-70
2021/12/08 06:05:20;;;;;;;2.88;1.63;;;2.70;99.90;;;;;;5058018;28;20397;-71
2021/12/08 06:07:48;;;;;;;5.78;1.80;;;2.70;99.90;;;;;;5058694;28;20089;-71
2021/12/08 06:10:24;;;;;;;3.50;1.65;;;2.70;99.90;;;;;;5058899;28;20051;-71
2021/12/08 06:12:53;;;;;;;4.97;1.98;;;2.70;99.90;;;;;;5059370;28;20029;-71
2021/12/08 06:15:21;;;;;;;5.85;1.70;;;2.80;99.90;;;;;;5058863;28;20025;-71
2021/12/08 06:17:48;;;;;;;2.08;1.25;;;2.70;99.90;;;;;;5056720;28;20328;-71
2021/12/08 06:20:17;;;;;;;3.30;1.80;;;2.70;99.90;;;;;;5057746;28;20039;-71
2021/12/08 06:22:46;;;;;;;2.88;1.65;;;2.70;99.90;;;;;;5056390;28;20029;-70
2021/12/08 06:25:18;;;;;;;7.15;1.48;;;2.70;99.90;;;;;;5057245;28;20083;-71
2021/12/08 06:27:46;;;;;;;6.38;1.88;;;2.70;99.90;;;;;;5056394;28;20025;-71
2021/12/08 06:30:20;;;;;;;3.08;1.25;;;2.70;99.90;;;;;;5057536;28;20377;-71
2021/12/08 06:32:47;;;;;;;3.33;2.05;;;2.70;99.90;;;;;;5057497;28;20025;-71
2021/12/08 06:35:23;;;;;;;5.22;1.30;;;2.80;99.90;;;;;;5057656;28;20490;-71
2021/12/08 06:37:51;;;;;;;2.00;1.40;;;2.80;99.90;;;;;;5058584;28;20025;-71
2021/12/08 06:40:50;;;;;;;2.75;1.60;;;2.80;99.90;;;;;;5057319;28;20679;-70
2021/12/08 06:43:23;;;;;;;9.52;1.70;;;2.80;99.90;;;;;;5057376;28;20033;-70
2021/12/08 06:45:57;;;;;;;3.00;1.55;;;2.80;99.90;;;;;;5057105;28;20033;-71
2021/12/08 06:48:34;;;;;;;8.85;1.90;;;2.80;99.90;;;;;;5058288;28;20017;-71
2021/12/08 06:51:14;;;;;;;3.20;2.08;;;2.80;99.90;;;;;;5056955;28;20025;-71
2021/12/08 06:53:45;;;;;;;10.68;2.25;;;2.80;99.90;;;;;;5057630;28;20103;-72
2021/12/08 06:56:21;;;;;;;5.07;1.38;;;2.80;99.90;;;;;;5055925;28;20108;-70
2021/12/08 06:58:51;;;;;;;5.40;1.70;;;2.80;99.90;;;;;;5057726;28;20024;-70
2021/12/08 07:01:42;;;;;;;4.18;1.58;;;2.80;99.90;;;;;;5056914;28;20021;-75
2021/12/08 07:04:33;;;;;;;3.53;1.73;;;2.80;99.90;;;;;;5057043;28;20025;-73
2021/12/08 07:07:14;;;;;;;3.60;1.60;;;2.80;99.90;;;;;;5057624;28;20429;-73
2021/12/08 07:09:59;;;;;;;2.65;1.60;;;2.80;99.90;;;;;;5057295;28;20123;-73
2021/12/08 07:12:44;;;;;;;8.05;2.03;;;2.80;99.90;;;;;;5056837;28;20021;-70
2021/12/08 07:15:24;;;;;;;8.07;2.40;;;2.80;99.90;;;;;;5058069;28;20028;-71
2021/12/08 07:17:59;;;;;;;6.50;2.10;;;2.80;99.90;;;;;;5057711;28;20063;-71
2021/12/08 07:20:43;;;;;;;12.23;2.28;;;2.80;99.90;;;;;;5055821;28;20028;-70
2021/12/08 07:23:16;;;;;;;4.05;2.20;;;2.80;99.90;;;;;;5057712;28;20056;-70
2021/12/08 07:25:46;;;;;;;3.38;2.33;;;2.80;99.90;;;;;;5057323;28;20336;-70
2021/12/08 07:28:16;;;;;;;6.28;2.67;;;2.80;99.90;;;;;;5057649;28;20025;-70
2021/12/08 07:31:06;;;;;;;4.20;2.40;;;2.80;99.90;;;;;;5057496;28;20532;-70
2021/12/08 07:33:34;;;;;;;5.50;2.42;;;2.90;99.90;;;;;;5057150;28;20028;-70
2021/12/08 07:36:06;;;;;;;3.40;2.05;;;2.80;99.90;;;;;;5057030;28;20021;-70
2021/12/08 07:38:35;;;;;;;4.40;2.30;;;2.90;99.90;;;;;;5056408;28;20049;-69
2021/12/08 07:41:14;;;;;;;5.22;1.80;;;2.90;99.90;;;;;;5055261;28;20040;-68
2021/12/08 07:43:49;;;;;;;5.32;2.70;;;2.90;99.90;;;;;;5056407;28;20027;-67
2021/12/08 07:46:27;;;;;;;6.20;3.63;;;2.90;99.90;;;;;;5056303;28;20478;-68
2021/12/08 07:49:18;;;;;;;5.45;2.78;;;2.90;99.90;;;;;;5056343;28;20025;-68
2021/12/08 07:51:52;;;;;;;7.10;2.83;;;2.90;99.90;;;;;;5055521;28;20128;-67
2021/12/08 07:54:21;;;;;;;4.38;2.30;;;3.00;99.90;;;;;;5057313;28;20025;-68
2021/12/08 07:56:52;;;;;;;4.55;2.38;;;3.00;99.90;;;;;;5057623;28;20028;-67
2021/12/08 07:59:20;;;;;;;7.05;2.72;;;3.00;99.90;;;;;;5057139;28;20099;-67
2021/12/08 08:01:53;;;;;;;5.90;2.92;;;3.00;99.90;;;;;;5057067;28;20025;-67
2021/12/08 08:04:24;;;;;;;11.98;4.40;;;3.10;99.90;;;;;;5057234;28;20023;-68
2021/12/08 08:06:58;;;;;;;10.98;4.05;;;3.10;99.90;;;;;;5057563;28;20025;-67
2021/12/08 08:09:35;;;;;;;9.73;4.05;;;3.10;99.90;;;;;;5056541;28;20032;-68
2021/12/08 08:12:10;;;;;;;13.30;4.10;;;3.10;99.90;;;;;;5056622;28;20063;-67
2021/12/08 08:14:43;;;;;;;4.72;2.80;;;3.10;99.90;;;;;;5056767;28;20021;-67
2021/12/08 08:17:17;;;;;;;6.50;2.63;;;3.20;99.90;;;;;;5056042;28;20029;-67
2021/12/08 08:19:49;;;;;;;5.22;2.30;;;3.20;99.90;;;;;;5056112;28;20032;-67
2021/12/08 08:22:23;;;;;;;7.13;3.08;;;3.20;99.90;;;;;;5056455;28;20025;-67
2021/12/08 08:24:52;;;;;;;5.53;2.80;;;3.30;99.90;;;;;;5055945;28;20041;-67
2021/12/08 08:27:19;;;;;;;8.55;2.85;;;3.30;99.90;;;;;;5055927;28;20028;-68
2021/12/08 08:29:48;;;;;;;5.25;2.78;;;3.30;99.90;;;;;;5056558;28;20418;-67
2021/12/08 08:32:35;;;;;;;4.82;2.70;;;3.30;99.90;;;;;;5061661;28;20392;-68
2021/12/08 08:35:16;;;;;;;4.13;2.85;;;3.30;99.90;;;;;;5060732;28;20325;-70
2021/12/08 08:37:45;;;;;;;5.72;3.03;;;3.40;99.90;;;;;;5060517;28;20027;-68
2021/12/08 08:40:21;;;;;;;6.97;2.47;;;3.40;99.90;;;;;;5060625;28;20025;-68
2021/12/08 08:42:51;;;;;;;6.35;2.75;;;3.40;99.90;;;;;;5060445;28;20074;-67
2021/12/08 08:45:27;;;;;;;4.75;1.77;;;3.50;99.90;;;;;;5060539;28;20082;-68
2021/12/08 08:48:09;;;;;;;9.23;2.53;;;3.50;99.90;;;;;;5060310;28;20017;-68
2021/12/08 08:51:00;;;;;;;6.80;2.33;;;3.60;99.90;;;;;;5059514;28;20425;-67
2021/12/08 08:53:35;;;;;;;5.20;2.33;;;3.60;99.90;;;;;;5058270;28;20055;-68
2021/12/08 08:56:16;;;;;;;5.10;2.60;;;3.60;99.90;;;;;;5058363;28;20025;-68
2021/12/08 08:58:50;;;;;;;7.10;2.28;;;3.70;99.90;;;;;;5059417;28;20017;-67
2021/12/08 09:01:26;;;;;;;3.47;2.20;;;3.70;99.90;;;;;;5058148;28;20025;-68
2021/12/08 09:04:06;;;;;;;4.50;2.45;;;3.70;99.90;;;;;;5059321;28;20029;-67
2021/12/08 09:06:44;;;;;;;4.70;2.13;;;3.70;99.90;;;;;;5059667;28;20057;-68
2021/12/08 09:09:25;;;;;;;6.82;2.83;;;3.70;99.90;;;;;;5060325;28;20017;-68
2021/12/08 09:12:07;;;;;;;4.47;2.30;;;3.80;99.90;;;;;;5060099;28;20024;-67
2021/12/08 09:14:37;;;;;;;8.75;2.33;;;3.80;99.90;;;;;;5060606;28;20111;-68
2021/12/08 09:17:18;;;;;;;7.00;2.53;;;3.80;99.90;;;;;;5060495;28;20051;-68
2021/12/08 09:19:57;;;;;;;7.43;2.85;;;3.80;99.90;;;;;;5059037;28;20494;-67
2021/12/08 09:22:33;;;;;;;4.47;1.92;;;3.80;99.90;;;;;;5059960;28;20029;-67
2021/12/08 09:25:28;;;;;;;9.43;2.43;;;3.80;99.90;;;;;;5058804;28;20037;-68
2021/12/08 09:28:00;;;;;;;7.10;2.58;;;3.80;99.90;;;;;;5059081;28;20263;-68
2021/12/08 09:30:49;;;;;;;4.50;2.17;;;3.90;99.90;;;;;;5057735;28;20044;-68
2021/12/08 09:33:27;;;;;;;9.32;2.50;;;3.90;99.90;;;;;;5058791;28;20033;-67
2021/12/08 09:35:59;;;;;;;3.97;2.05;;;3.90;99.90;;;;;;5059263;28;20029;-68
2021/12/08 09:38:33;;;;;;;4.30;2.63;;;3.90;99.90;;;;;;5057661;28;20039;-68
2021/12/08 09:41:13;;;;;;;6.60;2.65;;;4.00;99.90;;;;;;5059076;28;20037;-67
2021/12/08 09:43:57;;;;;;;7.43;3.30;;;4.00;99.90;;;;;;5057986;28;20302;-68
2021/12/08 09:46:41;;;;;;;9.48;2.65;;;4.00;99.90;;;;;;5059976;28;20543;-67
2021/12/08 09:49:10;;;;;;;5.22;2.30;;;4.00;99.90;;;;;;5059577;28;20029;-67
2021/12/08 09:51:39;;;;;;;5.82;2.30;;;4.00;99.90;;;;;;5058242;28;20440;-67
2021/12/08 09:54:08;;;;;;;7.55;3.20;;;4.00;99.90;;;;;;5059330;28;20079;-67
2021/12/08 09:56:36;;;;;;;5.95;2.45;;;4.00;99.90;;;;;;5059748;28;20021;-67
2021/12/08 09:59:09;;;;;;;8.02;3.33;;;4.00;99.90;;;;;;5059365;28;20029;-67
2021/12/08 10:01:40;;;;;;;5.55;2.33;;;4.00;99.90;;;;;;5058818;28;20102;-67
2021/12/08 10:04:12;;;;;;;7.00;2.60;;;4.10;99.90;;;;;;5058082;28;20025;-67
2021/12/08 10:06:44;;;;;;;7.68;3.03;;;4.10;99.90;;;;;;5058120;28;20017;-68
2021/12/08 10:09:12;;;;;;;3.28;2.28;;;4.20;99.90;;;;;;5058000;28;20021;-67
2021/12/08 10:11:40;;;;;;;3.33;2.15;;;4.20;99.90;;;;;;5056807;28;20082;-67
2021/12/08 10:14:08;;;;;;;3.53;2.10;;;4.30;99.90;;;;;;5057909;28;20446;-68
2021/12/08 10:16:36;;;;;;;4.00;1.83;;;4.40;99.90;;;;;;5058331;28;20033;-67
2021/12/08 10:19:05;;;;;;;7.97;2.60;;;4.40;99.90;;;;;;5057795;28;20100;-67
2021/12/08 10:21:42;;;;;;;4.10;1.95;;;4.50;99.90;;;;;;5057938;28;20036;-68
2021/12/08 10:24:20;;;;;;;4.65;2.22;;;4.60;99.90;;;;;;5058693;28;20064;-68
2021/12/08 10:26:50;;;;;;;8.80;2.42;;;4.60;99.90;;;;;;5058671;28;20482;-67
2021/12/08 10:29:26;;;;;;;6.13;2.45;;;4.70;99.90;;;;;;5058882;28;20026;-67
2021/12/08 10:34:53;;;;;;;4.22;1.98;;;4.80;99.90;;;;;;5045150;28;19926;-68
2021/12/08 10:37:21;;;;;;;8.73;2.90;;;4.80;99.90;;;;;;5058671;28;20321;-67
2021/12/08 10:39:52;;;;;;;7.03;2.40;;;4.80;99.90;;;;;;5058052;28;20040;-68
2021/12/08 10:42:31;;;;;;;3.30;1.98;;;4.80;99.90;;;;;;5057397;28;20025;-67
2021/12/08 10:45:13;;;;;;;3.30;1.98;;;4.80;99.90;;;;;;5058138;28;20024;-68
2021/12/08 10:47:55;;;;;;;4.50;2.28;;;4.80;99.90;;;;;;5057625;28;20025;-68
2021/12/08 10:56:24;;;;;;;6.93;3.15;;;4.80;99.90;;;;;;5057197;28;20091;-68
2021/12/08 10:58:59;;;;;;;4.63;2.20;;;4.90;99.90;;;;;;5057972;28;20393;-68
2021/12/08 11:01:27;;;;;;;4.70;2.80;;;4.90;99.90;;;;;;5057429;28;20079;-68
2021/12/08 11:04:07;;;;;;;7.13;2.60;;;4.90;99.90;;;;;;5058126;28;20368;-67
2021/12/08 11:06:36;;;;;;;9.48;3.13;;;4.90;99.90;;;;;;5058436;28;20017;-68
2021/12/08 11:09:13;;;;;;;5.45;2.13;;;5.00;99.90;;;;;;5056785;28;20032;-67
2021/12/08 11:11:43;;;;;;;17.45;4.63;;;5.00;99.90;;;;;;5058431;28;20021;-67
2021/12/08 11:14:14;;;;;;;9.63;3.70;;;5.00;99.90;;;;;;5057980;28;20049;-67
2021/12/08 11:16:44;;;;;;;7.97;3.13;;;4.90;99.90;;;;;;5057812;28;20025;-68
2021/12/08 11:19:21;;;;;;;5.15;2.20;;;4.90;99.90;;;;;;5057559;28;20029;-68
2021/12/08 11:21:59;;;;;;;6.00;2.42;;;4.90;99.90;;;;;;5056906;28;20103;-67
2021/12/08 11:24:49;;;;;;;3.78;1.48;;;5.00;99.90;;;;;;5056574;28;20049;-68
2021/12/08 11:27:34;;;;;;;6.18;1.90;;;5.00;99.90;;;;;;5056383;28;20111;-68
2021/12/08 11:30:14;;;;;;;6.05;2.35;;;5.10;99.90;;;;;;5056572;28;20100;-67
2021/12/08 11:32:41;;;;;;;4.13;1.80;;;5.10;99.90;;;;;;5038992;28;20033;-68
2021/12/08 11:35:21;;;;;;;5.70;2.08;;;5.20;99.90;;;;;;5056507;28;20017;-68
2021/12/08 11:38:00;;;;;;;3.63;2.17;;;5.20;99.90;;;;;;5056476;28;20045;-68
2021/12/08 11:40:33;;;;;;;5.78;1.90;;;5.20;99.90;;;;;;5058055;28;20291;-68
2021/12/08 11:43:02;;;;;;;4.20;2.08;;;5.20;99.90;;;;;;5058081;28;20025;-68
2021/12/08 11:45:40;;;;;;;5.93;2.92;;;5.20;99.90;;;;;;5057919;28;20031;-68
2021/12/08 11:48:27;;;;;;;8.40;2.35;;;5.30;99.90;;;;;;5057538;28;20021;-68
2021/12/08 11:51:15;;;;;;;5.00;2.28;;;5.30;99.90;;;;;;5057863;28;20021;-68
2021/12/08 11:53:43;;;;;;;7.13;2.55;;;5.30;99.90;;;;;;5057082;28;20032;-68
2021/12/08 11:56:41;;;;;;;4.32;1.80;;;5.40;99.90;;;;;;5055847;28;20078;-68
2021/12/08 11:59:13;;;;;;;4.28;1.52;;;5.40;99.90;;;;;;5056503;28;20417;-67
2021/12/08 12:01:41;;;;;;;3.60;1.85;;;5.40;99.90;;;;;;5056229;28;20035;-68
2021/12/08 12:04:10;;;;;;;3.22;1.65;;;5.30;99.90;;;;;;5056914;28;20307;-67
2021/12/08 12:06:39;;;;;;;4.72;2.10;;;5.30;99.90;;;;;;5059231;28;20313;-68
2021/12/08 12:09:09;;;;;;;5.05;2.10;;;5.20;99.90;;;;;;5060494;28;20328;-68
2021/12/08 12:11:37;;;;;;;8.40;2.40;;;5.20;99.90;;;;;;5060253;28;20036;-68
2021/12/08 12:14:06;;;;;;;3.17;1.80;;;5.10;99.90;;;;;;5060878;28;20025;-67
2021/12/08 12:16:33;;;;;;;5.30;2.95;;;5.10;99.90;;;;;;5060596;28;20429;-68
2021/12/08 12:19:06;;;;;;;5.60;2.08;;;5.10;99.90;;;;;;5061527;28;20037;-67
2021/12/08 12:22:00;;;;;;;10.05;3.88;;;5.10;99.90;;;;;;5060927;28;20442;-67
2021/12/08 12:24:49;;;;;;;6.07;2.28;;;5.10;99.90;;;;;;5061158;28;20441;-67
2021/12/08 12:28:01;;;;;;;8.15;3.00;;;5.10;99.90;;;;;;5061507;28;20049;-67
2021/12/08 12:30:58;;;;;;;4.05;2.30;;;5.10;99.90;;;;;;5057627;28;20040;-67
2021/12/08 12:33:26;;;;;;;7.22;2.50;;;5.10;99.90;;;;;;5032703;28;20047;-68
2021/12/08 12:35:56;;;;;;;11.82;3.97;;;5.20;99.90;;;;;;5058756;28;20468;-68
2021/12/08 12:38:38;;;;;;;10.30;2.35;;;5.10;99.90;;;;;;5058623;28;20036;-68
2021/12/08 12:41:07;;;;;;;4.47;2.80;;;5.20;99.90;;;;;;5060253;28;20017;-68
2021/12/08 12:43:43;;;;;;;8.77;2.60;;;5.10;99.90;;;;;;5059679;28;20028;-68
2021/12/08 12:46:16;;;;;;;8.55;2.30;;;5.20;99.90;;;;;;5059966;28;20091;-67
2021/12/08 12:48:50;;;;;;;5.55;3.10;;;5.20;99.90;;;;;;5059936;28;20017;-68
2021/12/08 12:51:21;;;;;;;4.82;2.28;;;5.20;99.90;;;;;;5059707;28;20364;-68
2021/12/08 12:53:53;;;;;;;4.55;2.30;;;5.20;99.90;;;;;;5058412;28;20025;-68
2021/12/08 12:56:28;;;;;;;4.22;1.98;;;5.30;99.90;;;;;;5060898;28;20483;-68
2021/12/08 12:58:58;;;;;;;4.40;2.20;;;5.30;99.90;;;;;;5060890;28;20068;-67
2021/12/08 13:01:40;;;;;;;3.58;2.08;;;5.30;99.90;;;;;;5059175;28;20032;-67
2021/12/08 13:04:20;;;;;;;5.10;2.25;;;5.30;99.90;;;;;;5060339;28;20056;-68
2021/12/08 13:07:07;;;;;;;6.30;2.70;;;5.30;99.90;;;;;;5060420;28;20052;-68
2021/12/08 13:09:41;;;;;;;5.45;2.92;;;5.30;99.90;;;;;;5059121;28;20079;-67
2021/12/08 13:12:18;;;;;;;5.47;2.20;;;5.30;99.90;;;;;;5060908;28;20021;-68
2021/12/08 13:14:47;;;;;;;5.55;2.50;;;5.20;99.90;;;;;;5059849;28;20052;-68
2021/12/08 13:17:25;;;;;;;5.95;2.38;;;5.20;99.90;;;;;;5058390;28;20056;-67
2021/12/08 13:19:59;;;;;;;3.85;2.53;;;5.20;99.90;;;;;;5059354;28;20025;-67
2021/12/08 13:22:47;;;;;;;5.28;1.95;;;5.20;99.90;;;;;;5058856;28;20029;-68
2021/12/08 13:28:47;;;;;;;4.95;2.30;;;5.30;99.90;;;;;;5055899;28;20025;-68
2021/12/08 13:34:06;;;;;;;6.05;2.55;;;5.20;99.90;;;;;;5059850;28;20075;-68
2021/12/08 13:36:40;;;;;;;4.15;2.28;;;5.30;99.90;;;;;;5059667;28;20017;-67
2021/12/08 13:39:09;;;;;;;6.55;2.75;;;5.20;99.90;;;;;;5059634;28;20075;-68
2021/12/08 13:41:38;;;;;;;8.13;2.88;;;5.20;99.90;;;;;;5058424;28;20029;-67
2021/12/08 13:44:27;;;;;;;5.65;2.40;;;5.20;99.90;;;;;;5059697;28;20504;-67
2021/12/08 13:46:57;;;;;;;8.30;2.70;;;5.10;99.90;;;;;;5058377;28;20325;-67
2021/12/08 13:49:34;;;;;;;5.85;2.97;;;5.10;99.90;;;;;;5059893;28;20074;-67
2021/12/08 13:52:12;;;;;;;4.43;2.33;;;5.10;99.90;;;;;;5058588;28;20357;-67
2021/12/08 13:54:44;;;;;;;7.20;2.97;;;5.00;99.90;;;;;;5059087;28;20021;-67
2021/12/08 13:57:31;;;;;;;5.85;2.58;;;5.00;99.90;;;;;;5058910;28;20048;-67
2021/12/08 14:00:02;;;;;;;9.55;2.90;;;4.90;99.90;;;;;;5058601;28;20082;-67
2021/12/08 14:02:33;;;;;;;6.32;3.92;;;4.90;99.90;;;;;;5058748;28;20104;-67
2021/12/08 14:05:22;;;;;;;7.82;3.08;;;4.90;99.90;;;;;;5058511;28;20017;-67
2021/12/08 14:08:07;;;;;;;5.90;2.63;;;4.90;99.90;;;;;;5058247;28;20336;-67
2021/12/08 14:10:40;;;;;;;9.13;4.07;;;4.90;99.90;;;;;;5057555;28;20023;-67
2021/12/08 14:13:11;;;;;;;7.50;3.28;;;4.80;99.90;;;;;;5058962;28;20055;-68
2021/12/08 14:15:55;;;;;;;10.65;3.53;;;4.80;99.90;;;;;;5059323;28;20028;-67
2021/12/08 14:18:35;;;;;;;7.85;3.20;;;4.80;99.90;;;;;;5057924;28;20428;-67
2021/12/08 14:21:24;;;;;;;6.43;3.13;;;4.70;99.90;;;;;;5058746;28;20039;-67